sensor_id;sensor_type;location;lat;lon;timestamp;pressure;altitude;pressure_sealevel;temperature;humidity
29909;BME280;36247;51.952;6.146;2022-12-18T00:01:46;102761.13;;;-6.66;100.00
29909;BME280;36247;51.952;6.146;2022-12-18T00:04:30;102768.88;;;-6.66;100.00
29909;BME280;36247;51.952;6.146;2022-12-18T00:06:55;102774.34;;;-6.56;100.00
29909;BME280;36247;51.952;6.146;2022-12-18T00:09:21;102768.69;;;-6.67;100.00
29909;BME280;36247;51.952;6.146;2022-12-18T00:11:47;102765.38;;;-6.66;100.00
29909;BME280;36247;51.952;6.146;2022-12-18T00:14:13;102770.75;;;-6.72;100.00
29909;BME280;36247;51.952;6.146;2022-12-18T00:16:39;102767.75;;;-6.61;100.00
29909;BME280;36247;51.952;6.146;2022-12-18T00:19:05;102760.56;;;-6.94;100.00
29909;BME280;36247;51.952;6.146;2022-12-18T00:21:31;102756.13;;;-6.87;100.00
29909;BME280;36247;51.952;6.146;2022-12-18T00:23:58;102753.72;;;-6.86;100.00
29909;BME280;36247;51.952;6.146;2022-12-18T00:26:34;102752.88;;;-6.70;100.00
29909;BME280;36247;51.952;6.146;2022-12-18T00:29:06;102756.75;;;-6.67;100.00
29909;BME280;36247;51.952;6.146;2022-12-18T00:31:33;102750.25;;;-6.86;100.00
29909;BME280;36247;51.952;6.146;2022-12-18T00:34:00;102758.00;;;-6.94;100.00
29909;BME280;36247;51.952;6.146;2022-12-18T00:36:29;102743.66;;;-6.99;100.00
29909;BME280;36247;51.952;6.146;2022-12-18T00:38:57;102751.66;;;-7.12;100.00
29909;BME280;36247;51.952;6.146;2022-12-18T00:41:23;102754.75;;;-7.07;100.00
29909;BME280;36247;51.952;6.146;2022-12-18T00:44:10;102750.63;;;-6.91;100.00
29909;BME280;36247;51.952;6.146;2022-12-18T00:46:36;102747.66;;;-6.86;100.00
29909;BME280;36247;51.952;6.146;2022-12-18T00:49:02;102755.78;;;-6.91;100.00
29909;BME280;36247;51.952;6.146;2022-12-18T00:51:28;102744.28;;;-6.78;100.00
29909;BME280;36247;51.952;6.146;2022-12-18T00:53:54;102747.69;;;-6.94;100.00
29909;BME280;36247;51.952;6.146;2022-12-18T00:56:22;102744.19;;;-6.94;100.00
29909;BME280;36247;51.952;6.146;2022-12-18T00:58:47;102752.19;;;-6.77;100.00
29909;BME280;36247;51.952;6.146;2022-12-18T01:01:13;102753.91;;;-6.84;100.00
29909;BME280;36247;51.952;6.146;2022-12-18T01:03:38;102764.44;;;-6.97;100.00
29909;BME280;36247;51.952;6.146;2022-12-18T01:06:06;102768.38;;;-7.15;100.00
29909;BME280;36247;51.952;6.146;2022-12-18T01:08:32;102760.41;;;-7.33;100.00
29909;BME280;36247;51.952;6.146;2022-12-18T01:10:58;102760.66;;;-7.15;100.00
29909;BME280;36247;51.952;6.146;2022-12-18T01:13:24;102750.69;;;-7.05;100.00
29909;BME280;36247;51.952;6.146;2022-12-18T01:15:50;102758.56;;;-6.96;100.00
29909;BME280;36247;51.952;6.146;2022-12-18T01:18:16;102763.31;;;-6.85;100.00
29909;BME280;36247;51.952;6.146;2022-12-18T01:20:42;102759.47;;;-6.96;100.00
29909;BME280;36247;51.952;6.146;2022-12-18T01:23:07;102747.34;;;-6.97;100.00
29909;BME280;36247;51.952;6.146;2022-12-18T01:25:33;102740.59;;;-7.11;100.00
29909;BME280;36247;51.952;6.146;2022-12-18T01:28:00;102734.84;;;-7.38;100.00
29909;BME280;36247;51.952;6.146;2022-12-18T01:30:26;102735.47;;;-7.63;100.00
29909;BME280;36247;51.952;6.146;2022-12-18T01:32:52;102740.19;;;-7.51;100.00
29909;BME280;36247;51.952;6.146;2022-12-18T01:35:18;102728.81;;;-7.53;100.00
29909;BME280;36247;51.952;6.146;2022-12-18T01:37:45;102732.13;;;-7.54;100.00
29909;BME280;36247;51.952;6.146;2022-12-18T01:40:10;102733.00;;;-7.47;100.00
29909;BME280;36247;51.952;6.146;2022-12-18T01:42:36;102737.28;;;-7.62;100.00
29909;BME280;36247;51.952;6.146;2022-12-18T01:50:27;102741.59;;;-7.98;100.00
29909;BME280;36247;51.952;6.146;2022-12-18T01:52:55;102747.28;;;-7.86;100.00
29909;BME280;36247;51.952;6.146;2022-12-18T01:55:25;102748.38;;;-7.77;100.00
29909;BME280;36247;51.952;6.146;2022-12-18T01:57:54;102749.81;;;-7.65;100.00
29909;BME280;36247;51.952;6.146;2022-12-18T02:00:21;102754.94;;;-7.57;100.00
29909;BME280;36247;51.952;6.146;2022-12-18T02:02:47;102745.44;;;-7.80;100.00
29909;BME280;36247;51.952;6.146;2022-12-18T02:05:31;102736.16;;;-7.49;100.00
29909;BME280;36247;51.952;6.146;2022-12-18T02:08:18;102732.78;;;-7.27;100.00
29909;BME280;36247;51.952;6.146;2022-12-18T02:11:03;102746.03;;;-7.38;100.00
29909;BME280;36247;51.952;6.146;2022-12-18T02:19:03;102764.66;;;-7.48;100.00
29909;BME280;36247;51.952;6.146;2022-12-18T02:21:44;102748.16;;;-7.64;100.00
29909;BME280;36247;51.952;6.146;2022-12-18T02:24:34;102749.09;;;-7.78;100.00
29909;BME280;36247;51.952;6.146;2022-12-18T02:27:06;102747.81;;;-7.67;100.00
29909;BME280;36247;51.952;6.146;2022-12-18T02:29:40;102753.41;;;-7.41;100.00
29909;BME280;36247;51.952;6.146;2022-12-18T02:32:14;102735.84;;;-7.59;100.00
29909;BME280;36247;51.952;6.146;2022-12-18T02:34:43;102742.97;;;-7.57;100.00
29909;BME280;36247;51.952;6.146;2022-12-18T02:37:15;102745.59;;;-7.64;100.00
29909;BME280;36247;51.952;6.146;2022-12-18T02:39:43;102749.25;;;-7.62;100.00
29909;BME280;36247;51.952;6.146;2022-12-18T02:42:12;102746.53;;;-7.78;100.00
29909;BME280;36247;51.952;6.146;2022-12-18T02:44:48;102747.81;;;-7.74;100.00
29909;BME280;36247;51.952;6.146;2022-12-18T02:47:20;102752.03;;;-7.75;100.00
29909;BME280;36247;51.952;6.146;2022-12-18T02:52:53;102741.16;;;-7.58;100.00
29909;BME280;36247;51.952;6.146;2022-12-18T03:00:53;102731.31;;;-7.39;100.00
29909;BME280;36247;51.952;6.146;2022-12-18T03:03:39;102734.72;;;-7.62;100.00
29909;BME280;36247;51.952;6.146;2022-12-18T03:06:10;102735.94;;;-7.44;100.00
29909;BME280;36247;51.952;6.146;2022-12-18T03:08:40;102731.06;;;-7.71;100.00
29909;BME280;36247;51.952;6.146;2022-12-18T03:11:09;102738.59;;;-7.65;100.00
29909;BME280;36247;51.952;6.146;2022-12-18T03:13:44;102732.91;;;-7.63;100.00
29909;BME280;36247;51.952;6.146;2022-12-18T03:16:17;102738.00;;;-7.55;100.00
29909;BME280;36247;51.952;6.146;2022-12-18T03:18:52;102745.88;;;-7.47;100.00
29909;BME280;36247;51.952;6.146;2022-12-18T03:21:26;102734.41;;;-7.27;100.00
29909;BME280;36247;51.952;6.146;2022-12-18T03:23:54;102734.22;;;-7.29;100.00
29909;BME280;36247;51.952;6.146;2022-12-18T03:26:25;102727.25;;;-7.22;100.00
29909;BME280;36247;51.952;6.146;2022-12-18T03:29:07;102728.69;;;-7.24;100.00
29909;BME280;36247;51.952;6.146;2022-12-18T03:31:39;102730.94;;;-7.35;100.00
29909;BME280;36247;51.952;6.146;2022-12-18T03:34:09;102726.41;;;-7.45;100.00
29909;BME280;36247;51.952;6.146;2022-12-18T03:36:42;102717.00;;;-7.37;100.00
29909;BME280;36247;51.952;6.146;2022-12-18T03:39:08;102717.31;;;-7.27;100.00
29909;BME280;36247;51.952;6.146;2022-12-18T03:44:44;102713.88;;;-7.41;100.00
29909;BME280;36247;51.952;6.146;2022-12-18T03:47:34;102710.38;;;-7.42;100.00
29909;BME280;36247;51.952;6.146;2022-12-18T03:50:14;102696.19;;;-7.76;100.00
29909;BME280;36247;51.952;6.146;2022-12-18T03:56:06;102700.41;;;-7.84;100.00
29909;BME280;36247;51.952;6.146;2022-12-18T03:58:39;102705.34;;;-7.78;100.00
29909;BME280;36247;51.952;6.146;2022-12-18T04:01:16;102705.41;;;-7.92;100.00
29909;BME280;36247;51.952;6.146;2022-12-18T04:03:44;102703.75;;;-8.13;100.00
29909;BME280;36247;51.952;6.146;2022-12-18T04:06:12;102698.84;;;-8.12;100.00
29909;BME280;36247;51.952;6.146;2022-12-18T04:08:40;102697.00;;;-8.20;100.00
29909;BME280;36247;51.952;6.146;2022-12-18T04:11:09;102697.00;;;-8.13;100.00
29909;BME280;36247;51.952;6.146;2022-12-18T04:13:36;102688.91;;;-8.09;100.00
29909;BME280;36247;51.952;6.146;2022-12-18T04:16:06;102692.19;;;-8.03;100.00
29909;BME280;36247;51.952;6.146;2022-12-18T04:18:31;102697.00;;;-8.20;100.00
29909;BME280;36247;51.952;6.146;2022-12-18T04:20:59;102701.41;;;-8.19;100.00
29909;BME280;36247;51.952;6.146;2022-12-18T04:23:24;102692.97;;;-8.33;100.00
29909;BME280;36247;51.952;6.146;2022-12-18T04:25:52;102689.63;;;-8.32;100.00
29909;BME280;36247;51.952;6.146;2022-12-18T04:28:30;102683.59;;;-8.18;100.00
29909;BME280;36247;51.952;6.146;2022-12-18T04:33:16;102685.75;;;-8.13;100.00
29909;BME280;36247;51.952;6.146;2022-12-18T04:35:42;102686.69;;;-8.20;100.00
29909;BME280;36247;51.952;6.146;2022-12-18T04:38:08;102675.69;;;-8.12;100.00
29909;BME280;36247;51.952;6.146;2022-12-18T04:40:34;102676.34;;;-7.91;100.00
29909;BME280;36247;51.952;6.146;2022-12-18T04:43:01;102677.47;;;-7.89;100.00
29909;BME280;36247;51.952;6.146;2022-12-18T04:45:26;102679.69;;;-7.92;100.00
29909;BME280;36247;51.952;6.146;2022-12-18T04:47:51;102672.88;;;-7.92;100.00
29909;BME280;36247;51.952;6.146;2022-12-18T04:50:17;102674.00;;;-8.04;100.00
29909;BME280;36247;51.952;6.146;2022-12-18T04:52:44;102672.34;;;-8.11;100.00
29909;BME280;36247;51.952;6.146;2022-12-18T04:55:12;102673.13;;;-8.26;100.00
29909;BME280;36247;51.952;6.146;2022-12-18T04:57:37;102672.53;;;-8.02;100.00
29909;BME280;36247;51.952;6.146;2022-12-18T05:00:03;102676.75;;;-7.95;100.00
29909;BME280;36247;51.952;6.146;2022-12-18T05:02:29;102683.34;;;-8.05;100.00
29909;BME280;36247;51.952;6.146;2022-12-18T05:04:54;102673.78;;;-7.99;100.00
29909;BME280;36247;51.952;6.146;2022-12-18T05:07:19;102685.97;;;-8.12;100.00
29909;BME280;36247;51.952;6.146;2022-12-18T05:09:45;102681.19;;;-8.23;100.00
29909;BME280;36247;51.952;6.146;2022-12-18T05:12:10;102677.72;;;-8.31;100.00
29909;BME280;36247;51.952;6.146;2022-12-18T05:14:36;102679.16;;;-8.19;100.00
29909;BME280;36247;51.952;6.146;2022-12-18T05:17:01;102671.59;;;-7.95;100.00
29909;BME280;36247;51.952;6.146;2022-12-18T05:19:27;102687.41;;;-8.00;100.00
29909;BME280;36247;51.952;6.146;2022-12-18T05:21:52;102692.75;;;-8.05;100.00
29909;BME280;36247;51.952;6.146;2022-12-18T05:24:17;102693.47;;;-7.99;100.00
29909;BME280;36247;51.952;6.146;2022-12-18T05:26:43;102696.56;;;-7.87;100.00
29909;BME280;36247;51.952;6.146;2022-12-18T05:29:08;102704.28;;;-7.87;100.00
29909;BME280;36247;51.952;6.146;2022-12-18T05:31:37;102711.63;;;-7.83;100.00
29909;BME280;36247;51.952;6.146;2022-12-18T05:34:03;102707.19;;;-7.77;100.00
29909;BME280;36247;51.952;6.146;2022-12-18T05:36:28;102718.03;;;-7.87;100.00
29909;BME280;36247;51.952;6.146;2022-12-18T05:38:54;102718.75;;;-7.66;100.00
29909;BME280;36247;51.952;6.146;2022-12-18T05:41:19;102730.34;;;-7.63;100.00
29909;BME280;36247;51.952;6.146;2022-12-18T05:43:44;102743.91;;;-7.56;100.00
29909;BME280;36247;51.952;6.146;2022-12-18T05:46:15;102743.44;;;-7.31;100.00
29909;BME280;36247;51.952;6.146;2022-12-18T05:48:42;102741.59;;;-7.32;100.00
29909;BME280;36247;51.952;6.146;2022-12-18T05:51:13;102736.28;;;-7.40;100.00
29909;BME280;36247;51.952;6.146;2022-12-18T05:53:40;102742.22;;;-7.49;100.00
29909;BME280;36247;51.952;6.146;2022-12-18T05:56:08;102739.38;;;-7.29;100.00
29909;BME280;36247;51.952;6.146;2022-12-18T05:58:34;102734.38;;;-7.20;100.00
29909;BME280;36247;51.952;6.146;2022-12-18T06:01:07;102726.09;;;-7.17;100.00
29909;BME280;36247;51.952;6.146;2022-12-18T06:03:33;102726.31;;;-7.23;100.00
29909;BME280;36247;51.952;6.146;2022-12-18T06:05:59;102712.84;;;-7.13;100.00
29909;BME280;36247;51.952;6.146;2022-12-18T06:08:24;102716.16;;;-7.14;100.00
29909;BME280;36247;51.952;6.146;2022-12-18T06:10:51;102711.16;;;-7.13;100.00
29909;BME280;36247;51.952;6.146;2022-12-18T06:13:19;102695.16;;;-7.10;100.00
29909;BME280;36247;51.952;6.146;2022-12-18T06:15:45;102681.31;;;-7.03;100.00
29909;BME280;36247;51.952;6.146;2022-12-18T06:18:10;102686.63;;;-7.02;100.00
29909;BME280;36247;51.952;6.146;2022-12-18T06:20:36;102689.50;;;-6.92;100.00
29909;BME280;36247;51.952;6.146;2022-12-18T06:23:02;102688.31;;;-6.79;100.00
29909;BME280;36247;51.952;6.146;2022-12-18T06:25:28;102679.91;;;-6.85;100.00
29909;BME280;36247;51.952;6.146;2022-12-18T06:27:53;102680.00;;;-7.00;100.00
29909;BME280;36247;51.952;6.146;2022-12-18T06:30:19;102686.59;;;-6.95;100.00
29909;BME280;36247;51.952;6.146;2022-12-18T06:32:45;102680.63;;;-7.17;100.00
29909;BME280;36247;51.952;6.146;2022-12-18T06:35:10;102682.72;;;-7.29;100.00
29909;BME280;36247;51.952;6.146;2022-12-18T06:37:36;102675.28;;;-7.49;100.00
29909;BME280;36247;51.952;6.146;2022-12-18T06:40:01;102677.50;;;-7.45;100.00
29909;BME280;36247;51.952;6.146;2022-12-18T06:42:28;102677.13;;;-7.48;100.00
29909;BME280;36247;51.952;6.146;2022-12-18T06:44:53;102673.72;;;-7.70;100.00
29909;BME280;36247;51.952;6.146;2022-12-18T06:47:19;102673.56;;;-7.78;100.00
29909;BME280;36247;51.952;6.146;2022-12-18T06:49:44;102668.63;;;-7.99;100.00
29909;BME280;36247;51.952;6.146;2022-12-18T06:52:10;102668.28;;;-8.02;100.00
29909;BME280;36247;51.952;6.146;2022-12-18T06:54:35;102660.38;;;-7.96;100.00
29909;BME280;36247;51.952;6.146;2022-12-18T06:57:01;102657.41;;;-7.85;100.00
29909;BME280;36247;51.952;6.146;2022-12-18T06:59:26;102655.59;;;-8.00;100.00
29909;BME280;36247;51.952;6.146;2022-12-18T07:01:51;102650.59;;;-7.84;100.00
29909;BME280;36247;51.952;6.146;2022-12-18T07:04:17;102648.72;;;-7.71;100.00
29909;BME280;36247;51.952;6.146;2022-12-18T07:06:42;102641.81;;;-6.65;100.00
29909;BME280;36247;51.952;6.146;2022-12-18T07:09:08;102638.69;;;-6.07;100.00
29909;BME280;36247;51.952;6.146;2022-12-18T07:11:33;102638.59;;;-5.68;100.00
29909;BME280;36247;51.952;6.146;2022-12-18T07:13:59;102626.00;;;-5.65;100.00
29909;BME280;36247;51.952;6.146;2022-12-18T07:16:24;102623.50;;;-5.56;100.00
29909;BME280;36247;51.952;6.146;2022-12-18T07:18:50;102624.31;;;-5.64;100.00
29909;BME280;36247;51.952;6.146;2022-12-18T07:21:18;102630.91;;;-5.59;100.00
29909;BME280;36247;51.952;6.146;2022-12-18T07:23:44;102627.47;;;-5.51;100.00
29909;BME280;36247;51.952;6.146;2022-12-18T07:26:12;102636.31;;;-5.49;100.00
29909;BME280;36247;51.952;6.146;2022-12-18T07:28:39;102639.22;;;-5.46;100.00
29909;BME280;36247;51.952;6.146;2022-12-18T07:31:07;102649.88;;;-5.43;100.00
29909;BME280;36247;51.952;6.146;2022-12-18T07:33:33;102646.81;;;-5.47;100.00
29909;BME280;36247;51.952;6.146;2022-12-18T07:36:00;102642.31;;;-5.41;100.00
29909;BME280;36247;51.952;6.146;2022-12-18T07:38:26;102629.97;;;-5.44;100.00
29909;BME280;36247;51.952;6.146;2022-12-18T07:40:52;102638.63;;;-5.43;100.00
29909;BME280;36247;51.952;6.146;2022-12-18T07:43:17;102633.44;;;-5.43;100.00
29909;BME280;36247;51.952;6.146;2022-12-18T07:45:43;102615.72;;;-5.40;100.00
29909;BME280;36247;51.952;6.146;2022-12-18T07:48:08;102621.06;;;-5.39;100.00
29909;BME280;36247;51.952;6.146;2022-12-18T07:50:34;102616.47;;;-5.41;100.00
29909;BME280;36247;51.952;6.146;2022-12-18T07:52:59;102602.59;;;-5.26;100.00
29909;BME280;36247;51.952;6.146;2022-12-18T07:55:29;102601.41;;;-5.21;100.00
29909;BME280;36247;51.952;6.146;2022-12-18T07:57:55;102597.22;;;-5.11;100.00
29909;BME280;36247;51.952;6.146;2022-12-18T08:00:20;102585.72;;;-4.98;100.00
29909;BME280;36247;51.952;6.146;2022-12-18T08:02:46;102578.59;;;-4.91;100.00
29909;BME280;36247;51.952;6.146;2022-12-18T08:05:11;102580.31;;;-4.83;100.00
29909;BME280;36247;51.952;6.146;2022-12-18T08:07:37;102580.91;;;-4.86;100.00
29909;BME280;36247;51.952;6.146;2022-12-18T08:10:03;102584.56;;;-4.84;100.00
29909;BME280;36247;51.952;6.146;2022-12-18T08:12:28;102588.25;;;-4.82;100.00
29909;BME280;36247;51.952;6.146;2022-12-18T08:14:54;102575.47;;;-4.80;100.00
29909;BME280;36247;51.952;6.146;2022-12-18T08:17:19;102572.72;;;-4.82;100.00
29909;BME280;36247;51.952;6.146;2022-12-18T08:19:45;102566.31;;;-4.85;100.00
29909;BME280;36247;51.952;6.146;2022-12-18T08:22:10;102563.59;;;-4.78;100.00
29909;BME280;36247;51.952;6.146;2022-12-18T08:24:36;102578.25;;;-4.70;100.00
29909;BME280;36247;51.952;6.146;2022-12-18T08:27:01;102576.06;;;-4.49;100.00
29909;BME280;36247;51.952;6.146;2022-12-18T08:29:26;102578.03;;;-4.38;100.00
29909;BME280;36247;51.952;6.146;2022-12-18T08:31:52;102579.78;;;-4.21;100.00
29909;BME280;36247;51.952;6.146;2022-12-18T08:34:17;102566.97;;;-4.11;100.00
29909;BME280;36247;51.952;6.146;2022-12-18T08:36:43;102569.41;;;-4.03;100.00
29909;BME280;36247;51.952;6.146;2022-12-18T08:39:08;102576.44;;;-3.94;100.00
29909;BME280;36247;51.952;6.146;2022-12-18T08:41:33;102571.56;;;-3.91;100.00
29909;BME280;36247;51.952;6.146;2022-12-18T08:43:59;102570.97;;;-3.88;100.00
29909;BME280;36247;51.952;6.146;2022-12-18T08:46:44;102566.69;;;-3.87;100.00
29909;BME280;36247;51.952;6.146;2022-12-18T08:49:10;102565.00;;;-3.87;100.00
29909;BME280;36247;51.952;6.146;2022-12-18T08:51:36;102565.31;;;-3.84;100.00
29909;BME280;36247;51.952;6.146;2022-12-18T08:54:03;102579.34;;;-3.82;100.00
29909;BME280;36247;51.952;6.146;2022-12-18T08:56:29;102582.25;;;-3.79;100.00
29909;BME280;36247;51.952;6.146;2022-12-18T08:58:55;102586.03;;;-3.75;100.00
29909;BME280;36247;51.952;6.146;2022-12-18T09:01:21;102597.34;;;-3.75;100.00
29909;BME280;36247;51.952;6.146;2022-12-18T09:03:48;102592.75;;;-3.77;100.00
29909;BME280;36247;51.952;6.146;2022-12-18T09:06:15;102583.75;;;-3.72;100.00
29909;BME280;36247;51.952;6.146;2022-12-18T09:08:42;102569.44;;;-3.68;100.00
29909;BME280;36247;51.952;6.146;2022-12-18T09:11:33;102566.53;;;-3.63;100.00
29909;BME280;36247;51.952;6.146;2022-12-18T09:14:00;102557.84;;;-3.55;100.00
29909;BME280;36247;51.952;6.146;2022-12-18T09:16:27;102563.47;;;-3.50;100.00
29909;BME280;36247;51.952;6.146;2022-12-18T09:18:55;102554.31;;;-3.38;100.00
29909;BME280;36247;51.952;6.146;2022-12-18T09:21:26;102552.63;;;-3.28;100.00
29909;BME280;36247;51.952;6.146;2022-12-18T09:23:53;102550.34;;;-3.25;100.00
29909;BME280;36247;51.952;6.146;2022-12-18T09:26:19;102554.09;;;-3.13;100.00
29909;BME280;36247;51.952;6.146;2022-12-18T09:28:45;102551.81;;;-3.19;100.00
29909;BME280;36247;51.952;6.146;2022-12-18T09:31:12;102542.69;;;-3.15;100.00
29909;BME280;36247;51.952;6.146;2022-12-18T09:33:38;102543.56;;;-3.06;100.00
29909;BME280;36247;51.952;6.146;2022-12-18T09:36:07;102537.13;;;-3.01;100.00
29909;BME280;36247;51.952;6.146;2022-12-18T09:38:34;102543.47;;;-2.88;100.00
29909;BME280;36247;51.952;6.146;2022-12-18T09:43:48;102537.75;;;-2.67;100.00
29909;BME280;36247;51.952;6.146;2022-12-18T09:46:24;102536.56;;;-2.70;100.00
29909;BME280;36247;51.952;6.146;2022-12-18T09:48:54;102545.81;;;-2.63;100.00
29909;BME280;36247;51.952;6.146;2022-12-18T09:51:47;102548.34;;;-2.46;100.00
29909;BME280;36247;51.952;6.146;2022-12-18T09:54:20;102535.13;;;-2.58;100.00
29909;BME280;36247;51.952;6.146;2022-12-18T09:56:47;102539.69;;;-2.55;100.00
29909;BME280;36247;51.952;6.146;2022-12-18T09:59:34;102547.28;;;-2.57;100.00
29909;BME280;36247;51.952;6.146;2022-12-18T10:02:13;102526.72;;;-2.55;100.00
29909;BME280;36247;51.952;6.146;2022-12-18T10:04:39;102529.00;;;-2.58;100.00
29909;BME280;36247;51.952;6.146;2022-12-18T10:07:14;102521.16;;;-2.50;100.00
29909;BME280;36247;51.952;6.146;2022-12-18T10:10:21;102519.50;;;-2.49;100.00
29909;BME280;36247;51.952;6.146;2022-12-18T10:12:52;102516.63;;;-2.52;100.00
29909;BME280;36247;51.952;6.146;2022-12-18T10:18:04;102505.25;;;-2.44;100.00
29909;BME280;36247;51.952;6.146;2022-12-18T10:20:38;102506.28;;;-2.42;100.00
29909;BME280;36247;51.952;6.146;2022-12-18T10:28:12;102496.28;;;-2.28;100.00
29909;BME280;36247;51.952;6.146;2022-12-18T10:30:40;102486.03;;;-2.27;100.00
29909;BME280;36247;51.952;6.146;2022-12-18T10:33:05;102483.88;;;-2.22;100.00
29909;BME280;36247;51.952;6.146;2022-12-18T10:35:31;102487.31;;;-2.13;100.00
29909;BME280;36247;51.952;6.146;2022-12-18T10:38:20;102481.34;;;-2.12;100.00
29909;BME280;36247;51.952;6.146;2022-12-18T10:43:21;102467.38;;;-2.04;100.00
29909;BME280;36247;51.952;6.146;2022-12-18T10:48:54;102450.38;;;-2.00;100.00
29909;BME280;36247;51.952;6.146;2022-12-18T10:51:40;102448.03;;;-1.97;100.00
29909;BME280;36247;51.952;6.146;2022-12-18T10:54:14;102450.03;;;-1.95;100.00
29909;BME280;36247;51.952;6.146;2022-12-18T10:56:41;102439.50;;;-1.96;100.00
29909;BME280;36247;51.952;6.146;2022-12-18T10:59:10;102436.75;;;-1.98;100.00
29909;BME280;36247;51.952;6.146;2022-12-18T11:01:56;102428.66;;;-1.82;100.00
29909;BME280;36247;51.952;6.146;2022-12-18T11:04:28;102423.34;;;-1.83;100.00
29909;BME280;36247;51.952;6.146;2022-12-18T11:07:06;102445.22;;;-1.71;100.00
29909;BME280;36247;51.952;6.146;2022-12-18T11:09:34;102445.25;;;-1.61;100.00
29909;BME280;36247;51.952;6.146;2022-12-18T11:12:03;102445.13;;;-1.62;100.00
29909;BME280;36247;51.952;6.146;2022-12-18T11:14:42;102451.25;;;-1.51;100.00
29909;BME280;36247;51.952;6.146;2022-12-18T11:17:24;102432.00;;;-1.64;100.00
29909;BME280;36247;51.952;6.146;2022-12-18T11:19:54;102420.81;;;-1.63;100.00
29909;BME280;36247;51.952;6.146;2022-12-18T11:22:23;102420.97;;;-1.51;100.00
29909;BME280;36247;51.952;6.146;2022-12-18T11:27:48;102431.25;;;-1.42;100.00
29909;BME280;36247;51.952;6.146;2022-12-18T11:30:32;102434.00;;;-1.40;100.00
29909;BME280;36247;51.952;6.146;2022-12-18T11:38:21;102397.47;;;-1.42;100.00
29909;BME280;36247;51.952;6.146;2022-12-18T11:41:04;102394.38;;;-1.38;100.00
29909;BME280;36247;51.952;6.146;2022-12-18T11:43:38;102379.03;;;-1.35;100.00
29909;BME280;36247;51.952;6.146;2022-12-18T11:46:10;102379.56;;;-1.29;100.00
29909;BME280;36247;51.952;6.146;2022-12-18T11:51:00;102396.88;;;-1.19;100.00
29909;BME280;36247;51.952;6.146;2022-12-18T11:53:29;102396.91;;;-1.09;100.00
29909;BME280;36247;51.952;6.146;2022-12-18T12:06:26;102359.69;;;-1.08;100.00
29909;BME280;36247;51.952;6.146;2022-12-18T12:16:51;102339.94;;;-1.05;100.00
29909;BME280;36247;51.952;6.146;2022-12-18T12:24:35;102339.81;;;-0.97;100.00
29909;BME280;36247;51.952;6.146;2022-12-18T12:32:44;102327.31;;;-0.91;100.00
29909;BME280;36247;51.952;6.146;2022-12-18T12:38:19;102325.22;;;-0.74;100.00
29909;BME280;36247;51.952;6.146;2022-12-18T12:40:51;102320.66;;;-0.77;100.00
29909;BME280;36247;51.952;6.146;2022-12-18T12:43:21;102322.59;;;-0.74;100.00
29909;BME280;36247;51.952;6.146;2022-12-18T12:45:55;102317.03;;;-0.79;100.00
29909;BME280;36247;51.952;6.146;2022-12-18T12:48:31;102313.34;;;-0.81;100.00
29909;BME280;36247;51.952;6.146;2022-12-18T12:51:01;102303.88;;;-0.70;100.00
29909;BME280;36247;51.952;6.146;2022-12-18T12:53:31;102299.19;;;-0.84;100.00
29909;BME280;36247;51.952;6.146;2022-12-18T12:55:58;102301.03;;;-0.83;100.00
29909;BME280;36247;51.952;6.146;2022-12-18T12:59:13;102301.03;;;-0.83;100.00
29909;BME280;36247;51.952;6.146;2022-12-18T13:09:11;102286.94;;;-0.75;100.00
29909;BME280;36247;51.952;6.146;2022-12-18T13:11:39;102283.44;;;-0.76;100.00
29909;BME280;36247;51.952;6.146;2022-12-18T13:14:35;102275.75;;;-0.74;100.00
29909;BME280;36247;51.952;6.146;2022-12-18T13:19:49;102268.22;;;-0.81;100.00
29909;BME280;36247;51.952;6.146;2022-12-18T13:24:59;102255.47;;;-0.78;100.00
29909;BME280;36247;51.952;6.146;2022-12-18T13:35:41;102248.44;;;-0.79;100.00
29909;BME280;36247;51.952;6.146;2022-12-18T13:38:23;102260.66;;;-0.78;100.00
29909;BME280;36247;51.952;6.146;2022-12-18T13:43:22;102242.31;;;-0.80;100.00
29909;BME280;36247;51.952;6.146;2022-12-18T13:48:54;102236.22;;;-0.80;100.00
29909;BME280;36247;51.952;6.146;2022-12-18T13:51:21;102239.22;;;-0.86;100.00
29909;BME280;36247;51.952;6.146;2022-12-18T13:54:00;102243.09;;;-0.81;100.00
29909;BME280;36247;51.952;6.146;2022-12-18T13:56:32;102248.56;;;-0.78;100.00
29909;BME280;36247;51.952;6.146;2022-12-18T13:59:18;102244.78;;;-0.71;100.00
29909;BME280;36247;51.952;6.146;2022-12-18T14:04:16;102243.34;;;-0.78;100.00
29909;BME280;36247;51.952;6.146;2022-12-18T14:06:43;102243.34;;;-0.78;100.00
29909;BME280;36247;51.952;6.146;2022-12-18T14:09:14;102233.75;;;-0.79;100.00
29909;BME280;36247;51.952;6.146;2022-12-18T14:11:40;102228.41;;;-0.80;100.00
29909;BME280;36247;51.952;6.146;2022-12-18T14:14:16;102226.34;;;-0.84;100.00
29909;BME280;36247;51.952;6.146;2022-12-18T14:16:42;102230.78;;;-0.83;100.00
29909;BME280;36247;51.952;6.146;2022-12-18T14:19:13;102229.06;;;-0.83;100.00
29909;BME280;36247;51.952;6.146;2022-12-18T14:21:40;102221.00;;;-0.86;100.00
29909;BME280;36247;51.952;6.146;2022-12-18T14:26:34;102218.78;;;-0.81;100.00
29909;BME280;36247;51.952;6.146;2022-12-18T14:29:14;102223.63;;;-0.86;100.00
29909;BME280;36247;51.952;6.146;2022-12-18T14:31:42;102201.91;;;-0.86;100.00
29909;BME280;36247;51.952;6.146;2022-12-18T14:34:15;102204.25;;;-0.90;100.00
29909;BME280;36247;51.952;6.146;2022-12-18T14:36:40;102205.28;;;-0.87;100.00
29909;BME280;36247;51.952;6.146;2022-12-18T14:39:16;102192.91;;;-0.90;100.00
29909;BME280;36247;51.952;6.146;2022-12-18T14:41:42;102192.78;;;-0.92;100.00
29909;BME280;36247;51.952;6.146;2022-12-18T14:44:11;102194.63;;;-0.91;100.00
29909;BME280;36247;51.952;6.146;2022-12-18T14:46:38;102194.63;;;-0.91;100.00
29909;BME280;36247;51.952;6.146;2022-12-18T14:49:30;102189.03;;;-0.95;100.00
29909;BME280;36247;51.952;6.146;2022-12-18T14:51:59;102182.25;;;-0.93;100.00